ADDS METAR Data INFO
IDs: Format: Raw Decoded Include TAF

Data at: 1155 UTC 25 Jun 2018

K11R 251135Z AUTO 16007KT 10SM CLR 26/25 A2997 RMK AO2 T02580250
K11R 251115Z AUTO 16008KT 10SM CLR 26/25 A2995 RMK AO2 T02570250
K11R 251055Z AUTO 16007KT 10SM CLR 26/25 A2994 RMK AO2 T02560250
K11R 251035Z AUTO 16008KT 10SM CLR 26/25 A2994 RMK AO2 T02550250
K11R 251015Z AUTO 16007KT 10SM CLR 25/25 A2993 RMK AO2 T02520249
K11R 250955Z AUTO 15004KT 10SM SCT033 SCT041 25/25 A2994 RMK AO2 T02520249
K11R 250935Z AUTO 16006KT 10SM SCT008 SCT012 BKN022 25/25 A2994 RMK AO2 T02540249
K11R 250915Z AUTO 16006KT 10SM SCT008 BKN022 26/25 A2993 RMK AO2 T02550248
K11R 250855Z AUTO 16005KT 10SM SCT014 BKN022 26/25 A2993 RMK AO2 T02550250
K11R 250835Z AUTO 15007KT 10SM BKN014 OVC022 26/25 A2993 RMK AO2 LTG DSNT SE T02570250
K11R 250815Z AUTO 15004KT 10SM SCT014 BKN019 BKN024 26/25 A2994 RMK AO2 T02570250
K11R 250755Z AUTO 16004KT 10SM SCT017 SCT022 26/25 A2994 RMK AO2 T02570248
K11R 250735Z AUTO 16007KT 10SM SCT015 BKN024 26/25 A2994 RMK AO2 T02580248
K11R 250715Z AUTO 17005KT 10SM BKN015 26/25 A2995 RMK AO2 T02600247
K11R 250655Z AUTO 16006KT 10SM SCT015 26/24 A2995 RMK AO2 T02620243
K11R 250635Z AUTO 16008KT 10SM SCT015 SCT020 SCT031 26/24 A2996 RMK AO2 T02630241
K11R 250615Z AUTO 15007KT 10SM BKN015 BKN020 BKN031 27/24 A2996 RMK AO2 T02650240
K11R 250555Z AUTO 16009KT 10SM BKN017 BKN031 27/24 A2995 RMK AO2 T02650240 10325 20265 403460260
K11R 250535Z AUTO 16006KT 10SM BKN017 BKN023 OVC028 27/24 A2996 RMK AO2 T02660240
K11R 250515Z AUTO 16005KT 10SM OVC019 27/24 A2995 RMK AO2 T02670237
K11R 250455Z AUTO 15007KT 10SM BKN019 27/24 A2994 RMK AO2 T02680237
K11R 250435Z AUTO 14006KT 10SM CLR 27/24 A2995 RMK AO2 T02700236
K11R 250415Z AUTO 15006KT 10SM CLR 27/24 A2993 RMK AO2 T02720235
K11R 250355Z AUTO 15006KT 10SM CLR 28/24 A2992 RMK AO2 T02750235
K11R 250335Z AUTO 16011KT 130V200 10SM CLR 28/24 A2991 RMK AO2 T02780235
K11R 250315Z AUTO 16010G16KT 10SM CLR 28/24 A2989 RMK AO2 LTG DSNT SE T02800236
K11R 250255Z AUTO 16006KT 10SM CLR 28/24 A2990 RMK AO2 T02830235
K11R 250235Z AUTO 15007KT 10SM CLR 29/24 A2990 RMK AO2 T02860235
K11R 250215Z AUTO 13005KT 10SM CLR 29/24 A2990 RMK AO2 T02910235
K11R 250155Z AUTO 16009G14KT 10SM SCT037 SCT047 30/23 A2989 RMK AO2 T02960233
K11R 250135Z AUTO 15007KT 10SM SCT037 BKN045 30/23 A2989 RMK AO2 T03020230
K11R 250115Z AUTO 15008KT 10SM SCT038 SCT046 31/23 A2989 RMK AO2 T03060229
K11R 250055Z AUTO 15009KT 10SM SCT038 SCT046 31/23 A2988 RMK AO2 T03120230
K11R 250035Z AUTO 16007KT 10SM CLR 32/23 A2987 RMK AO2 T03160226
K11R 250015Z AUTO 17011G14KT 10SM SCT037 32/23 A2987 RMK AO2 T03220228
K11R 242355Z AUTO 17011G16KT 10SM SCT037 32/23 A2987 RMK AO2 T03240230 10346 20324
K11R 242335Z AUTO 17010G16KT 10SM SCT037 33/23 A2987 RMK AO2 T03260231
K11R 242315Z AUTO 15010G18KT 130V190 10SM SCT037 SCT049 SCT070 33/24 A2987 RMK AO2 T03320235
K11R 242255Z AUTO 16010G18KT 10SM SCT037 BKN048 BKN060 33/23 A2987 RMK AO2 T03300231
K11R 242235Z AUTO 15011G18KT 10SM SCT036 SCT042 BKN048 33/24 A2987 RMK AO2 T03340235
K11R 242215Z AUTO 17012G18KT 10SM SCT045 SCT050 BKN060 34/23 A2987 RMK AO2 T03370227
K11R 242155Z AUTO 19015G20KT 10SM CLR 34/22 A2987 RMK AO2 T03430219
K11R 242135Z AUTO 15012G17KT 10SM SCT047 34/23 A2987 RMK AO2 T03410227
K11R 242115Z AUTO 16014G21KT 10SM SCT040 SCT047 34/23 A2988 RMK AO2 T03380232
K11R 242055Z AUTO 16011G15KT 10SM SCT041 SCT047 SCT060 34/23 A2989 RMK AO2 T03390232
K11R 242035Z AUTO 17011G19KT 10SM SCT046 SCT060 34/22 A2990 RMK AO2 T03430223
K11R 242015Z AUTO 17010G17KT 10SM SCT045 SCT060 35/22 A2990 RMK AO2 T03450224
K11R 241955Z AUTO 16011G20KT 10SM SCT047 SCT060 34/22 A2990 RMK AO2 T03430224
K11R 241935Z AUTO 16015G19KT 10SM SCT044 SCT050 34/22 A2990 RMK AO2 T03420222
K11R 241915Z AUTO 15014G18KT 10SM SCT042 SCT050 34/23 A2990 RMK AO2 T03410228
K11R 241855Z AUTO 17011G15KT 10SM SCT040 SCT049 34/23 A2991 RMK AO2 T03390232
K11R 241835Z AUTO 17013G18KT 10SM SCT040 BKN047 BKN060 34/23 A2991 RMK AO2 T03360228
K11R 241815Z AUTO 17011G17KT 10SM SCT040 BKN050 33/23 A2991 RMK AO2 T03310228
K11R 241755Z AUTO 18013G18KT 10SM SCT040 SCT048 SCT055 34/23 A2991 RMK AO2 T03350227 10338 20260
K11R 241735Z AUTO 18009G17KT 10SM SCT036 SCT055 33/23 A2991 RMK AO2 T03340234
K11R 241715Z AUTO 16011G15KT 10SM SCT034 33/24 A2991 RMK AO2 T03280238
K11R 241655Z AUTO 17009G15KT 10SM SCT036 33/24 A2991 RMK AO2 T03260236
K11R 241635Z AUTO 18013G18KT 10SM CLR 32/23 A2991 RMK AO2 T03210230
K11R 241615Z AUTO 17010KT 10SM SCT027 SCT034 SCT040 32/24 A2991 RMK AO2 T03150240
K11R 241555Z AUTO 19009G17KT 10SM SCT027 BKN033 BKN040 32/24 A2990 RMK AO2 T03150242
K11R 241535Z AUTO 19009KT 10SM SCT027 SCT033 BKN041 30/24 A2990 RMK AO2 T03020237
K11R 241515Z AUTO 20008KT 10SM SCT022 SCT029 BKN034 30/24 A2990 RMK AO2 T03000244
K11R 241455Z AUTO 19011G17KT 10SM SCT020 BKN027 BKN035 29/24 A2990 RMK AO2 T02900241
K11R 241435Z AUTO 20012G18KT 10SM BKN018 OVC025 29/25 A2989 RMK AO2 T02940246
K11R 241415Z AUTO 19013G19KT 10SM BKN016 OVC021 29/26 A2989 RMK AO2 LTG DSNT SE T02870259
K11R 241355Z AUTO 19009G18KT 10SM OVC014 29/26 A2988 RMK AO2 T02860260
K11R 241335Z AUTO 18009G16KT 10SM OVC012 28/26 A2987 RMK AO2 T02800260
K11R 241315Z AUTO 17010G17KT 10SM BKN010 28/26 A2987 RMK AO2 T02750259
K11R 241255Z AUTO 18012KT 7SM SCT010 27/26 A2986 RMK AO2 T02680257
K11R 241235Z AUTO 18011G14KT 10SM SCT008 26/26 A2986 RMK AO2 LTG DSNT SE T02630257
K11R 241215Z AUTO 17009KT 7SM SCT008 SCT017 26/26 A2987 RMK AO2 T02610256
K11R 241155Z AUTO 17006KT 7SM BKN008 BKN017 BKN033 26/26 A2987 RMK AO2 7//// T02610256 10270 20260
K11R 241135Z AUTO 17008KT 10SM BKN008 BKN015 BKN020 26/26 A2988 RMK AO2 T02600256
K11R 241115Z AUTO 17005KT 10SM SCT008 BKN013 BKN017 26/26 A2989 RMK AO2 T02610256
K11R 241055Z AUTO 17006KT 10SM SCT017 26/26 A2987 RMK AO2 T02610256
K11R 241035Z AUTO 17005KT 10SM SCT015 26/26 A2987 RMK AO2 T02610255
K11R 241015Z AUTO 17004KT 10SM CLR 26/26 A2988 RMK AO2 T02630256
K11R 240955Z AUTO 17006KT 10SM SCT016 BKN023 27/26 A2988 RMK AO2 T02650256
K11R 240935Z AUTO 18006KT 10SM BKN016 OVC024 27/26 A2988 RMK AO2 T02670258
K11R 240915Z AUTO 17004KT 10SM BKN020 BKN028 BKN050 27/26 A2988 RMK AO2 T02660258
K11R 240855Z AUTO 17004KT 10SM SCT011 BKN018 BKN022 26/26 A2989 RMK AO2 T02640257
K11R 240835Z AUTO 00000KT 10SM OVC011 27/26 A2990 RMK AO2 T02650258
K11R 240815Z AUTO 00000KT 10SM BKN010 BKN016 OVC035 27/26 A2991 RMK AO2 T02650258
K11R 240755Z AUTO 00000KT 10SM BKN008 BKN015 OVC041 26/26 A2992 RMK AO2 T02640257
K11R 240735Z AUTO 17005KT 10SM BKN010 OVC014 27/26 A2990 RMK AO2 T02660257
K11R 240710Z AUTO 17007KT 10SM OVC010 27/26 A2990 RMK AO2 T02680258
K11R 240655Z AUTO 18008KT 10SM BKN010 BKN015 BKN024 27/26 A2990 RMK AO2 LTG DSNT SE T02700258
K11R 240635Z AUTO 17010G16KT 10SM OVC010 27/26 A2989 RMK AO2 LTG DSNT SE AND NW T02700257
K11R 240615Z AUTO 16009G15KT 10SM BKN012 OVC017 27/26 A2988 RMK AO2 LTG DSNT SE T02700257
K11R 240555Z AUTO 16010KT 10SM OVC012 27/26 A2988 RMK AO2 6//// T02710256
K11R 240535Z AUTO 17006KT 10SM OVC012 27/25 A2989 RMK AO2 LTG DSNT SE AND NW T02710250
K11R 240515Z AUTO 17009KT 10SM OVC012 28/25 A2988 RMK AO2 T02750250
K11R 240455Z AUTO 16009G16KT 10SM OVC012 28/25 A2987 RMK AO2 T02750248
K11R 240435Z AUTO 17010G14KT 10SM OVC014 28/25 A2986 RMK AO2 T02750248
K11R 240415Z AUTO 16011G18KT 10SM OVC014 28/25 A2985 RMK AO2 T02760248
K11R 240355Z AUTO 16010KT 28/25 A2983 RMK AO2 LTG DSNT SE T02760246 PWINO
K11R 240235Z AUTO 16011G16KT 10SM CLR 29/24 A2981 RMK AO2 T02860242
K11R 240215Z AUTO 16009G16KT 10SM CLR 29/24 A2980 RMK AO2 T02900243
K11R 240155Z AUTO 17010G17KT 10SM CLR 29/24 A2980 RMK AO2 T02940241
K11R 240135Z AUTO 16009G14KT 10SM CLR 30/24 A2980 RMK AO2 T03000237
K11R 240115Z AUTO 17009G17KT 10SM CLR 31/23 A2980 RMK AO2 T03080232
K11R 240055Z AUTO 17011G17KT 10SM CLR 31/23 A2979 RMK AO2 T03140228
K11R 240035Z AUTO 18011G16KT 10SM CLR 32/23 A2979 RMK AO2 T03190227
K11R 240015Z AUTO 18010G16KT 10SM CLR 32/22 A2979 RMK AO2 T03230224